createdAt,value
2022-12-23T00:01:57.793Z,95.65
2022-12-23T00:04:26.769Z,95.50
2022-12-23T00:06:55.487Z,95.22
2022-12-23T00:09:24.249Z,96.02
2022-12-23T00:12:06.837Z,95.52
2022-12-23T00:14:45.808Z,95.43
2022-12-23T00:17:22.539Z,95.89
2022-12-23T00:19:51.865Z,95.57
2022-12-23T00:22:40.845Z,96.06
2022-12-23T00:25:10.315Z,96.03
2022-12-23T00:27:39.598Z,95.59
2022-12-23T00:30:12.077Z,95.69
2022-12-23T00:32:42.317Z,95.72
2022-12-23T00:35:11.302Z,95.64
2022-12-23T00:37:40.423Z,96.23
2022-12-23T00:40:20.916Z,95.64
2022-12-23T00:42:55.731Z,96.12
2022-12-23T00:45:24.606Z,96.16
2022-12-23T00:48:04.459Z,95.59
2022-12-23T00:50:34.516Z,95.59
2022-12-23T00:53:03.292Z,96.25
2022-12-23T00:55:32.242Z,96.16
2022-12-23T00:58:00.961Z,95.98
2022-12-23T01:00:43.681Z,96.01
2022-12-23T01:03:24.602Z,96.25
2022-12-23T01:05:53.397Z,96.61
2022-12-23T01:08:22.029Z,96.24
2022-12-23T01:10:50.840Z,96.30
2022-12-23T01:13:19.579Z,96.25
2022-12-23T01:15:48.336Z,95.91
2022-12-23T01:18:18.351Z,96.33
2022-12-23T01:20:47.153Z,96.19
2022-12-23T01:23:15.951Z,95.94
2022-12-23T01:25:44.718Z,96.03
2022-12-23T01:28:13.451Z,96.44
2022-12-23T01:30:42.149Z,96.38
2022-12-23T01:33:10.901Z,96.15
2022-12-23T01:35:41.092Z,96.47
2022-12-23T01:38:09.821Z,96.17
2022-12-23T01:40:39.384Z,96.47
2022-12-23T01:43:06.829Z,96.49
2022-12-23T01:45:35.537Z,96.49
2022-12-23T01:48:10.330Z,95.86
2022-12-23T01:50:44.002Z,96.64
2022-12-23T01:53:16.774Z,95.88
2022-12-23T01:55:51.032Z,96.72
2022-12-23T01:58:23.173Z,96.64
2022-12-23T02:01:02.390Z,96.29
2022-12-23T02:03:41.132Z,96.60
2022-12-23T02:06:24.254Z,96.19
2022-12-23T02:09:02.999Z,96.56
2022-12-23T02:12:01.706Z,96.71
2022-12-23T02:14:55.031Z,96.79
2022-12-23T02:17:30.905Z,96.64
2022-12-23T02:20:25.559Z,96.63
2022-12-23T02:23:26.708Z,96.55
2022-12-23T02:26:17.001Z,96.52
2022-12-23T02:29:05.733Z,97.00
2022-12-23T02:31:45.538Z,96.42
2022-12-23T02:34:21.482Z,96.41
2022-12-23T02:36:56.588Z,96.76
2022-12-23T02:39:34.862Z,96.90
2022-12-23T02:42:09.509Z,97.01
2022-12-23T02:44:46.310Z,96.55
2022-12-23T02:47:23.011Z,96.49
2022-12-23T02:49:56.551Z,96.64
2022-12-23T02:52:33.147Z,97.13
2022-12-23T02:55:06.082Z,96.58
2022-12-23T02:57:38.668Z,96.71
2022-12-23T03:00:10.079Z,97.29
2022-12-23T03:02:41.839Z,96.91
2022-12-23T03:05:27.141Z,97.16
2022-12-23T03:08:00.164Z,97.58
2022-12-23T03:10:41.658Z,97.31
2022-12-23T03:13:22.968Z,97.26
2022-12-23T03:16:04.043Z,97.24
2022-12-23T03:18:49.239Z,96.90
2022-12-23T03:21:25.930Z,97.46
2022-12-23T03:24:01.117Z,97.49
2022-12-23T03:26:37.808Z,97.15
2022-12-23T03:29:15.204Z,97.15
2022-12-23T03:31:46.013Z,97.00
2022-12-23T03:34:20.677Z,97.44
2022-12-23T03:36:53.108Z,97.60
2022-12-23T03:39:27.887Z,96.99
2022-12-23T03:42:03.691Z,97.53
2022-12-23T03:44:38.397Z,97.10
2022-12-23T03:47:12.450Z,97.32
2022-12-23T03:49:48.199Z,97.70
2022-12-23T03:52:21.686Z,97.99
2022-12-23T03:54:55.906Z,97.34
2022-12-23T03:57:30.180Z,97.83
2022-12-23T03:59:59.181Z,97.39
2022-12-23T04:02:40.196Z,97.10
2022-12-23T04:05:26.585Z,97.59
2022-12-23T04:08:01.378Z,98.13
2022-12-23T04:10:31.829Z,97.97
2022-12-23T04:13:00.777Z,97.63
2022-12-23T04:15:30.310Z,98.38
2022-12-23T04:17:59.102Z,98.03
2022-12-23T04:20:29.091Z,97.67
2022-12-23T04:22:58.501Z,98.30
2022-12-23T04:25:27.529Z,98.21
2022-12-23T04:27:56.500Z,98.08
2022-12-23T04:30:29.786Z,97.92
2022-12-23T04:33:03.079Z,98.20
2022-12-23T04:35:33.208Z,97.89
2022-12-23T04:38:01.950Z,98.28
2022-12-23T04:40:30.743Z,97.94
2022-12-23T04:42:59.479Z,98.16
2022-12-23T04:45:28.185Z,98.19
2022-12-23T04:47:57.232Z,97.75
2022-12-23T04:50:25.822Z,98.43
2022-12-23T04:52:56.890Z,98.08
2022-12-23T04:55:25.653Z,98.08
2022-12-23T04:57:54.259Z,98.33
2022-12-23T05:00:23.605Z,98.38
2022-12-23T05:02:52.517Z,97.82
2022-12-23T05:05:21.369Z,97.94
2022-12-23T05:07:51.601Z,98.41
2022-12-23T05:10:21.836Z,98.39
2022-12-23T05:12:50.510Z,98.22
2022-12-23T05:15:19.347Z,98.21
2022-12-23T05:17:48.024Z,97.89
2022-12-23T05:20:17.449Z,98.37
2022-12-23T05:22:46.149Z,98.41
2022-12-23T05:25:14.911Z,98.44
2022-12-23T05:27:44.993Z,98.33
2022-12-23T05:30:14.253Z,98.58
2022-12-23T05:32:42.883Z,97.85
2022-12-23T05:35:11.889Z,97.86
2022-12-23T05:37:40.559Z,97.74
2022-12-23T05:40:11.058Z,97.79
2022-12-23T05:42:39.902Z,98.01
2022-12-23T05:45:11.162Z,98.41
2022-12-23T05:47:40.044Z,98.30
2022-12-23T05:50:09.955Z,98.34
2022-12-23T05:52:38.971Z,98.41
2022-12-23T05:55:08.878Z,98.36
2022-12-23T05:57:37.567Z,98.35
2022-12-23T06:00:07.115Z,98.31
2022-12-23T06:02:45.102Z,97.98
2022-12-23T06:05:16.376Z,98.05
2022-12-23T06:07:45.117Z,98.64
2022-12-23T06:10:13.930Z,98.35
2022-12-23T06:12:42.731Z,98.77
2022-12-23T06:15:12.240Z,98.73
2022-12-23T06:17:42.588Z,98.42
2022-12-23T06:20:19.949Z,97.91
2022-12-23T06:22:49.775Z,97.93
2022-12-23T06:25:18.518Z,97.93
2022-12-23T06:27:47.339Z,98.19
2022-12-23T06:30:16.394Z,98.62
2022-12-23T06:32:46.678Z,97.92
2022-12-23T06:35:15.444Z,98.21
2022-12-23T06:37:45.075Z,98.39
2022-12-23T06:40:14.078Z,98.18
2022-12-23T06:42:42.738Z,98.64
2022-12-23T06:45:12.450Z,98.00
2022-12-23T06:47:41.069Z,97.96
2022-12-23T06:50:12.294Z,98.57
2022-12-23T06:52:41.059Z,98.05
2022-12-23T06:55:10.050Z,98.54
2022-12-23T06:57:39.062Z,98.49
2022-12-23T07:00:09.016Z,98.38
2022-12-23T07:02:37.854Z,98.28
2022-12-23T07:05:07.859Z,98.42
2022-12-23T07:07:38.242Z,98.63
2022-12-23T07:10:08.309Z,98.63
2022-12-23T07:12:37.201Z,97.97
2022-12-23T07:15:07.879Z,98.54
2022-12-23T07:17:36.673Z,98.12
2022-12-23T07:20:05.891Z,98.67
2022-12-23T07:22:34.621Z,98.50
2022-12-23T07:25:04.947Z,98.43
2022-12-23T07:27:33.921Z,98.08
2022-12-23T07:30:03.131Z,98.64
2022-12-23T07:32:32.350Z,98.28
2022-12-23T07:35:01.447Z,98.18
2022-12-23T07:37:30.412Z,98.59
2022-12-23T07:40:02.266Z,98.33
2022-12-23T07:42:46.522Z,98.27
2022-12-23T07:45:15.742Z,98.62
2022-12-23T07:47:44.610Z,98.51
2022-12-23T07:50:13.745Z,98.60
2022-12-23T07:52:42.353Z,98.70
2022-12-23T07:55:11.779Z,98.33
2022-12-23T07:57:42.104Z,98.71
2022-12-23T08:00:13.107Z,98.23
2022-12-23T08:02:42.696Z,98.05
2022-12-23T08:05:12.211Z,98.72
2022-12-23T08:07:40.980Z,98.66
2022-12-23T08:10:11.280Z,98.62
2022-12-23T08:12:41.590Z,98.74
2022-12-23T08:15:11.077Z,98.53
2022-12-23T08:17:39.679Z,98.47
2022-12-23T08:20:09.958Z,98.21
2022-12-23T08:22:38.756Z,98.56
2022-12-23T08:25:08.294Z,98.42
2022-12-23T08:27:37.059Z,98.64
2022-12-23T08:30:08.651Z,98.78
2022-12-23T08:32:37.543Z,98.69
2022-12-23T08:35:07.031Z,98.55
2022-12-23T08:37:35.727Z,98.46
2022-12-23T08:40:04.609Z,98.55
2022-12-23T08:42:33.292Z,98.57
2022-12-23T08:45:02.491Z,98.57
2022-12-23T08:47:32.642Z,98.29
2022-12-23T08:50:01.312Z,98.48
2022-12-23T08:52:29.994Z,98.46
2022-12-23T08:54:58.635Z,98.61
2022-12-23T08:57:28.871Z,98.55
2022-12-23T08:59:57.921Z,98.61
2022-12-23T09:02:26.704Z,98.17
2022-12-23T09:04:56.967Z,98.33
2022-12-23T09:07:25.730Z,98.75
2022-12-23T09:09:54.387Z,98.57
2022-12-23T09:12:23.079Z,98.28
2022-12-23T09:14:51.694Z,98.52
2022-12-23T09:17:20.642Z,98.31
2022-12-23T09:19:52.908Z,98.35
2022-12-23T09:22:23.542Z,98.40
2022-12-23T09:24:52.284Z,98.56
2022-12-23T09:27:20.867Z,98.76
2022-12-23T09:29:49.600Z,98.16
2022-12-23T09:32:18.513Z,98.47
2022-12-23T09:34:47.337Z,98.30
2022-12-23T09:37:16.941Z,98.41
2022-12-23T09:39:47.094Z,98.41
2022-12-23T09:42:41.535Z,98.25
2022-12-23T09:45:22.395Z,98.19
2022-12-23T09:47:53.308Z,98.23
2022-12-23T09:50:27.770Z,98.36
2022-12-23T09:53:02.404Z,97.93
2022-12-23T09:55:50.825Z,98.53
2022-12-23T09:58:30.572Z,98.26
2022-12-23T10:01:12.824Z,98.12
2022-12-23T10:04:07.141Z,97.98
2022-12-23T10:06:39.376Z,97.98
2022-12-23T10:09:11.406Z,98.15
2022-12-23T10:11:46.361Z,98.00
2022-12-23T10:14:21.278Z,97.76
2022-12-23T10:16:54.276Z,97.93
2022-12-23T10:19:27.867Z,97.84
2022-12-23T10:22:04.047Z,98.10
2022-12-23T10:24:38.858Z,98.12
2022-12-23T10:27:23.566Z,97.79
2022-12-23T10:29:52.671Z,98.07
2022-12-23T10:32:28.920Z,98.02
2022-12-23T10:35:06.997Z,98.02
2022-12-23T10:37:41.760Z,97.98
2022-12-23T10:40:21.575Z,98.02
2022-12-23T10:43:01.820Z,98.11
2022-12-23T10:45:46.845Z,97.95
2022-12-23T10:48:25.990Z,97.88
2022-12-23T10:51:02.971Z,97.86
2022-12-23T10:53:37.101Z,98.02
2022-12-23T10:56:07.731Z,97.83
2022-12-23T10:58:42.853Z,98.08
2022-12-23T11:01:22.137Z,97.88
2022-12-23T11:04:02.717Z,97.80
2022-12-23T11:06:37.545Z,97.74
2022-12-23T11:09:07.650Z,97.77
2022-12-23T11:11:58.395Z,97.88
2022-12-23T11:14:37.975Z,97.87
2022-12-23T11:17:19.113Z,97.54
2022-12-23T11:19:47.892Z,98.06
2022-12-23T11:22:25.536Z,97.57
2022-12-23T11:24:54.216Z,97.63
2022-12-23T11:27:23.004Z,97.85
2022-12-23T11:29:56.359Z,97.82
2022-12-23T11:32:28.230Z,97.57
2022-12-23T11:34:57.852Z,97.56
2022-12-23T11:37:36.466Z,97.96
2022-12-23T11:40:08.576Z,98.06
2022-12-23T11:42:37.280Z,97.77
2022-12-23T11:45:08.940Z,97.90
2022-12-23T11:47:41.597Z,97.39
2022-12-23T11:50:29.044Z,97.54
2022-12-23T11:53:14.696Z,97.96
2022-12-23T11:55:59.128Z,98.02
2022-12-23T11:58:30.641Z,97.57
2022-12-23T12:01:02.686Z,97.48
2022-12-23T12:03:36.402Z,97.78
2022-12-23T12:06:07.679Z,97.85
2022-12-23T12:08:39.118Z,97.66
2022-12-23T12:11:15.240Z,97.61
2022-12-23T12:13:46.537Z,97.80
2022-12-23T12:16:33.932Z,97.79
2022-12-23T12:19:06.895Z,97.76
2022-12-23T12:21:40.043Z,97.53
2022-12-23T12:24:19.535Z,97.42
2022-12-23T12:26:52.773Z,97.35
2022-12-23T12:29:28.351Z,97.64
2022-12-23T12:32:01.621Z,97.84
2022-12-23T12:34:39.251Z,97.73
2022-12-23T12:37:23.001Z,97.62
2022-12-23T12:39:56.135Z,97.25
2022-12-23T12:42:31.886Z,97.55
2022-12-23T12:45:14.727Z,97.68
2022-12-23T12:47:54.431Z,97.40
2022-12-23T12:50:29.445Z,97.73
2022-12-23T12:53:04.964Z,97.54
2022-12-23T12:55:38.714Z,97.18
2022-12-23T12:58:21.364Z,97.29
2022-12-23T13:01:01.574Z,97.39
2022-12-23T13:03:54.340Z,97.55
2022-12-23T13:06:30.343Z,97.17
2022-12-23T13:09:10.563Z,97.31
2022-12-23T13:11:45.623Z,97.43
2022-12-23T13:14:34.522Z,97.22
2022-12-23T13:17:09.732Z,97.01
2022-12-23T13:19:48.668Z,97.48
2022-12-23T13:22:19.136Z,97.41
2022-12-23T13:24:58.106Z,96.77
2022-12-23T13:27:34.191Z,96.92
2022-12-23T13:30:15.692Z,97.61
2022-12-23T13:33:05.525Z,97.13
2022-12-23T13:35:47.362Z,97.17
2022-12-23T13:38:31.513Z,97.26
2022-12-23T13:41:07.523Z,97.31
2022-12-23T13:43:45.224Z,96.88
2022-12-23T13:46:22.352Z,97.27
2022-12-23T13:48:59.613Z,97.08
2022-12-23T13:51:37.458Z,97.19
2022-12-23T13:54:17.265Z,97.37
2022-12-23T13:56:51.574Z,97.23
2022-12-23T13:59:20.446Z,97.03
2022-12-23T14:01:52.702Z,97.50
2022-12-23T14:04:58.824Z,96.95
2022-12-23T14:07:32.000Z,97.07
2022-12-23T14:10:22.021Z,96.75
2022-12-23T14:12:53.291Z,96.91
2022-12-23T14:15:49.433Z,97.34
2022-12-23T14:18:33.701Z,97.22
2022-12-23T14:21:12.599Z,97.17
2022-12-23T14:24:04.151Z,97.48
2022-12-23T14:27:09.721Z,97.51
2022-12-23T14:30:03.174Z,97.25
2022-12-23T14:32:46.983Z,97.19
2022-12-23T14:35:26.714Z,97.07
2022-12-23T14:38:24.555Z,97.42
2022-12-23T14:41:17.465Z,97.31
2022-12-23T14:44:19.783Z,97.50
2022-12-23T14:46:59.456Z,97.42
2022-12-23T14:49:41.803Z,97.27
2022-12-23T14:52:31.304Z,97.32
2022-12-23T14:55:33.178Z,97.44
2022-12-23T14:58:10.792Z,97.63
2022-12-23T15:00:49.326Z,97.76
2022-12-23T15:03:19.026Z,97.44
2022-12-23T15:05:47.745Z,97.57
2022-12-23T15:08:30.585Z,97.42
2022-12-23T15:11:00.691Z,97.78
2022-12-23T15:13:31.206Z,97.56
2022-12-23T15:16:01.960Z,97.50
2022-12-23T15:18:31.343Z,97.52
2022-12-23T15:21:02.711Z,97.65
2022-12-23T15:23:33.499Z,97.21
2022-12-23T15:26:04.032Z,97.36
2022-12-23T15:28:38.125Z,97.63
2022-12-23T15:31:17.474Z,97.56
2022-12-23T15:34:06.154Z,97.60
2022-12-23T15:36:40.625Z,97.66
2022-12-23T15:39:19.813Z,97.95
2022-12-23T15:41:49.905Z,97.60
2022-12-23T15:44:24.985Z,97.61
2022-12-23T15:46:54.247Z,97.90
2022-12-23T15:49:23.086Z,97.75
2022-12-23T15:52:16.494Z,97.78
2022-12-23T15:54:53.590Z,97.66
2022-12-23T15:57:25.719Z,97.84
2022-12-23T15:59:57.060Z,97.90
2022-12-23T16:05:30.174Z,97.87
2022-12-23T16:08:10.907Z,97.66
2022-12-23T16:10:39.921Z,97.93
2022-12-23T16:13:18.516Z,97.96
2022-12-23T16:15:49.014Z,97.93
2022-12-23T16:18:23.222Z,97.88
2022-12-23T16:20:54.805Z,97.93
2022-12-23T16:23:25.162Z,98.03
2022-12-23T16:25:54.875Z,98.20
2022-12-23T16:28:29.177Z,97.90
2022-12-23T16:30:59.857Z,97.87
2022-12-23T16:33:37.487Z,97.84
2022-12-23T16:36:19.721Z,98.03
2022-12-23T16:38:51.302Z,98.11
2022-12-23T16:41:20.852Z,98.37
2022-12-23T16:43:52.670Z,98.08
2022-12-23T16:46:24.802Z,98.24
2022-12-23T16:48:56.088Z,97.96
2022-12-23T16:51:26.103Z,98.14
2022-12-23T16:53:57.458Z,98.00
2022-12-23T16:56:30.385Z,98.20
2022-12-23T16:58:59.363Z,98.05
2022-12-23T17:01:32.701Z,98.62
2022-12-23T17:04:02.045Z,98.12
2022-12-23T17:06:30.786Z,98.08
2022-12-23T17:08:59.583Z,98.24
2022-12-23T17:11:36.489Z,98.43
2022-12-23T17:14:10.526Z,98.01
2022-12-23T17:16:46.128Z,98.34
2022-12-23T17:19:15.594Z,98.24
2022-12-23T17:21:46.153Z,98.79
2022-12-23T17:24:23.501Z,98.50
2022-12-23T17:26:52.625Z,98.17
2022-12-23T17:29:21.372Z,98.46
2022-12-23T17:31:52.672Z,98.71
2022-12-23T17:34:23.921Z,98.45
2022-12-23T17:36:53.207Z,98.74
2022-12-23T17:39:22.926Z,98.61
2022-12-23T17:41:51.875Z,98.44
2022-12-23T17:44:20.979Z,98.63
2022-12-23T17:46:51.087Z,98.88
2022-12-23T17:49:19.760Z,98.83
2022-12-23T17:51:48.483Z,98.92
2022-12-23T17:54:24.402Z,98.53
2022-12-23T17:56:53.769Z,99.12
2022-12-23T17:59:22.573Z,98.98
2022-12-23T18:01:52.956Z,98.69
2022-12-23T18:04:22.211Z,98.52
2022-12-23T18:06:51.312Z,98.61
2022-12-23T18:09:21.781Z,98.85
2022-12-23T18:11:50.994Z,98.97
2022-12-23T18:14:28.183Z,98.97
2022-12-23T18:16:58.491Z,99.00
2022-12-23T18:19:27.226Z,99.10
2022-12-23T18:21:56.140Z,99.08
2022-12-23T18:24:24.971Z,99.08
2022-12-23T18:26:53.690Z,98.98
2022-12-23T18:29:22.670Z,98.91
2022-12-23T18:31:52.408Z,99.05
2022-12-23T18:34:22.259Z,99.04
2022-12-23T18:36:52.315Z,98.75
2022-12-23T18:39:21.599Z,99.13
2022-12-23T18:41:50.345Z,99.10
2022-12-23T18:44:21.319Z,99.15
2022-12-23T18:46:50.814Z,98.83
2022-12-23T18:49:19.932Z,98.99
2022-12-23T18:51:51.157Z,99.19
2022-12-23T18:54:20.553Z,98.94
2022-12-23T18:56:51.114Z,99.13
2022-12-23T18:59:29.363Z,99.01
2022-12-23T19:01:59.962Z,99.27
2022-12-23T19:04:29.047Z,99.21
2022-12-23T19:06:59.266Z,98.99
2022-12-23T19:09:28.007Z,99.04
2022-12-23T19:11:56.956Z,99.11
2022-12-23T19:14:25.660Z,98.97
2022-12-23T19:16:54.287Z,99.14
2022-12-23T19:19:23.535Z,99.21
2022-12-23T19:21:52.378Z,99.23
2022-12-23T19:24:23.017Z,99.02
2022-12-23T19:26:51.754Z,99.02
2022-12-23T19:29:21.108Z,99.29
2022-12-23T19:31:49.825Z,99.36
2022-12-23T19:34:18.464Z,99.27
2022-12-23T19:36:47.236Z,99.10
2022-12-23T19:39:18.441Z,99.21
2022-12-23T19:41:48.645Z,99.18
2022-12-23T19:44:17.432Z,99.10
2022-12-23T19:46:46.170Z,99.20
2022-12-23T19:49:19.978Z,98.99
2022-12-23T19:51:49.993Z,99.47
2022-12-23T19:54:20.257Z,99.38
2022-12-23T19:56:52.133Z,99.42
2022-12-23T19:59:22.106Z,99.44
2022-12-23T20:01:50.843Z,99.36
2022-12-23T20:04:19.956Z,99.19
2022-12-23T20:06:48.597Z,99.38
2022-12-23T20:09:17.319Z,99.60
2022-12-23T20:11:48.842Z,99.33
2022-12-23T20:14:21.839Z,99.00
2022-12-23T20:16:50.663Z,99.27
2022-12-23T20:19:19.676Z,99.22
2022-12-23T20:21:48.421Z,99.41
2022-12-23T20:24:17.627Z,99.52
2022-12-23T20:26:46.970Z,99.52
2022-12-23T20:29:15.640Z,99.31
2022-12-23T20:31:46.783Z,99.29
2022-12-23T20:34:18.149Z,99.30
2022-12-23T20:36:46.980Z,99.71
2022-12-23T20:39:15.755Z,99.55
2022-12-23T20:41:44.449Z,99.39
2022-12-23T20:47:03.919Z,99.68
2022-12-23T20:49:33.343Z,99.80
2022-12-23T20:52:02.316Z,99.57
2022-12-23T20:54:33.561Z,99.54
2022-12-23T20:57:04.080Z,98.94
2022-12-23T20:59:33.315Z,99.71
2022-12-23T21:02:04.017Z,99.33
2022-12-23T21:04:32.905Z,99.35
2022-12-23T21:07:01.708Z,99.54
2022-12-23T21:09:30.623Z,99.59
2022-12-23T21:11:59.360Z,99.56
2022-12-23T21:14:28.515Z,99.62
2022-12-23T21:16:57.057Z,99.37
2022-12-23T21:19:27.834Z,99.52
2022-12-23T21:21:56.673Z,99.65
2022-12-23T21:24:25.825Z,99.26
2022-12-23T21:26:57.077Z,99.61
2022-12-23T21:29:26.295Z,99.38
2022-12-23T21:31:55.315Z,99.78
2022-12-23T21:34:24.265Z,99.35
2022-12-23T21:36:54.561Z,99.50
2022-12-23T21:39:23.905Z,99.79
2022-12-23T21:41:53.248Z,99.30
2022-12-23T21:44:22.105Z,99.41
2022-12-23T21:46:51.839Z,99.40
2022-12-23T21:49:21.476Z,99.51
2022-12-23T21:51:51.970Z,99.63
2022-12-23T21:54:22.234Z,99.43
2022-12-23T21:56:51.031Z,99.49
2022-12-23T21:59:19.603Z,99.60
2022-12-23T22:01:49.011Z,99.38
2022-12-23T22:04:18.320Z,99.59
2022-12-23T22:06:47.072Z,99.60
2022-12-23T22:09:18.511Z,99.64
2022-12-23T22:11:49.380Z,99.92
2022-12-23T22:14:19.881Z,99.72
2022-12-23T22:16:48.590Z,99.57
2022-12-23T22:19:17.876Z,99.55
2022-12-23T22:21:46.534Z,99.48
2022-12-23T22:24:15.146Z,99.58
2022-12-23T22:26:43.879Z,99.57
2022-12-23T22:29:14.068Z,99.75
2022-12-23T22:31:46.530Z,99.69
2022-12-23T22:34:17.478Z,99.60
2022-12-23T22:36:46.724Z,99.77
2022-12-23T22:39:20.914Z,99.75
2022-12-23T22:41:51.019Z,99.86
2022-12-23T22:44:21.934Z,99.43
2022-12-23T22:46:50.968Z,99.63
2022-12-23T22:49:19.750Z,99.55
2022-12-23T22:51:48.635Z,99.35
2022-12-23T22:54:17.379Z,99.64
2022-12-23T22:56:47.071Z,99.94
2022-12-23T22:59:22.359Z,99.82
2022-12-23T23:01:52.689Z,99.43
2022-12-23T23:04:21.861Z,99.85
2022-12-23T23:06:50.726Z,99.61
2022-12-23T23:09:21.630Z,99.65
2022-12-23T23:11:51.343Z,99.71
2022-12-23T23:14:21.299Z,99.65
2022-12-23T23:16:50.087Z,99.92
2022-12-23T23:19:20.626Z,100.00
2022-12-23T23:21:50.192Z,99.72
2022-12-23T23:24:18.962Z,99.66
2022-12-23T23:26:48.253Z,99.63
2022-12-23T23:29:16.881Z,100.00
2022-12-23T23:31:47.102Z,99.84
2022-12-23T23:34:15.869Z,99.87
2022-12-23T23:36:44.701Z,99.85
2022-12-23T23:39:14.352Z,99.37
2022-12-23T23:41:43.097Z,99.69
2022-12-23T23:44:12.907Z,99.70
2022-12-23T23:46:41.809Z,99.65
2022-12-23T23:49:12.073Z,99.67
2022-12-23T23:51:41.762Z,99.52
2022-12-23T23:54:10.869Z,99.86
2022-12-23T23:56:39.766Z,99.48
2022-12-23T23:59:09.548Z,99.83
